Time;durP1;ratioP1;P1;durP2;ratioP2;P2;SDS_P1;SDS_P2;PMS_P1;PMS_P2;Temp;Humidity;BMP_temperature;BMP_pressure;BME280_temperature;BME280_humidity;BME280_pressure;Samples;Min_cycle;Max_cycle;Signal;HPM_P1;HPM_P2
2023/07/28 00:00:43;;;;;;;5.20;2.53;;;;;;;21.84;67.21;99550.88;5045621;28;20160;-62
2023/07/28 00:03:09;;;;;;;4.60;2.93;;;;;;;21.83;67.86;99548.41;5022390;28;20267;-62
2023/07/28 00:05:36;;;;;;;3.10;2.30;;;;;;;21.83;66.84;99549.22;5033408;28;20450;-62
2023/07/28 00:08:01;;;;;;;4.00;2.53;;;;;;;21.84;67.37;99553.75;5045832;28;20183;-62
2023/07/28 00:10:27;;;;;;;4.00;2.43;;;;;;;21.82;67.00;99556.19;5035972;28;20446;-62
2023/07/28 00:12:52;;;;;;;5.30;2.90;;;;;;;21.83;66.95;99552.09;5026604;28;20731;-62
2023/07/28 00:15:17;;;;;;;3.90;2.43;;;;;;;21.84;67.26;99547.16;5039406;28;20583;-62
2023/07/28 00:17:44;;;;;;;3.80;2.33;;;;;;;21.82;67.05;99538.97;5009418;28;20208;-62
2023/07/28 00:20:10;;;;;;;9.63;2.93;;;;;;;21.82;67.64;99533.22;5038719;28;20318;-62
2023/07/28 00:22:35;;;;;;;3.90;2.40;;;;;;;21.83;66.99;99540.59;5055927;28;20460;-62
2023/07/28 00:25:01;;;;;;;3.27;2.37;;;;;;;21.83;67.16;99531.16;5043478;28;20942;-62
2023/07/28 00:27:26;;;;;;;3.60;2.30;;;;;;;21.83;67.42;99528.28;5051380;28;20199;-62
2023/07/28 00:29:52;;;;;;;3.70;2.60;;;;;;;21.83;66.75;99522.56;5052295;28;20175;-62
2023/07/28 00:32:17;;;;;;;4.47;2.47;;;;;;;21.83;66.92;99529.09;5052118;28;20179;-62
2023/07/28 00:34:43;;;;;;;3.43;2.20;;;;;;;21.81;66.99;99522.97;5049213;28;20191;-62
2023/07/28 00:37:08;;;;;;;3.93;2.40;;;;;;;21.83;67.24;99525.44;5051982;28;20207;-62
2023/07/28 00:39:34;;;;;;;5.07;2.63;;;;;;;21.82;67.50;99527.47;5050644;28;20191;-62
2023/07/28 00:41:59;;;;;;;4.07;2.50;;;;;;;21.82;66.90;99527.47;5046551;28;20192;-62
2023/07/28 00:44:25;;;;;;;4.37;2.40;;;;;;;21.82;66.68;99530.34;5030247;28;20188;-62
2023/07/28 00:46:50;;;;;;;2.90;2.17;;;;;;;21.82;67.33;99529.53;5030383;28;20563;-62
2023/07/28 00:49:15;;;;;;;4.57;2.03;;;;;;;21.81;67.06;99531.59;5032644;28;20192;-62
2023/07/28 00:51:41;;;;;;;4.50;2.67;;;;;;;21.82;67.17;99529.53;5030216;28;20173;-62
2023/07/28 00:54:06;;;;;;;3.50;2.23;;;;;;;21.81;66.93;99537.34;5031723;28;20230;-62
2023/07/28 00:56:32;;;;;;;4.53;2.50;;;;;;;21.82;66.93;99530.34;5034528;28;20200;-62
2023/07/28 00:58:57;;;;;;;5.60;2.67;;;;;;;21.81;67.04;99531.59;5049360;28;20543;-62
2023/07/28 01:01:23;;;;;;;4.37;2.30;;;;;;;21.81;66.98;99534.47;5050903;28;20215;-62
2023/07/28 01:03:49;;;;;;;3.90;2.63;;;;;;;21.81;66.87;99533.63;5032422;28;20215;-62
2023/07/28 01:07:05;;;;;;;4.13;2.40;;;;;;;21.81;67.20;99542.25;5040197;28;20231;-62
2023/07/28 01:09:52;;;;;;;4.03;2.43;;;;;;;21.81;67.59;99533.63;5027474;28;20409;-62
2023/07/28 01:12:18;;;;;;;3.87;2.50;;;;;;;21.81;67.92;99542.25;5032573;28;20421;-62
2023/07/28 01:14:44;;;;;;;4.87;2.93;;;;;;;21.81;67.59;99533.63;5036849;28;20450;-62
2023/07/28 01:17:09;;;;;;;3.97;2.27;;;;;;;21.81;67.36;99545.94;5012920;28;20288;-62
2023/07/28 01:19:35;;;;;;;3.53;2.40;;;;;;;21.80;67.07;99541.44;5039043;28;20856;-62
2023/07/28 01:22:39;;;;;;;3.37;2.47;;;;;;;21.81;67.27;99539.38;5032874;28;20196;-62
2023/07/28 01:25:23;;;;;;;7.17;2.43;;;;;;;21.81;67.40;99536.50;5052730;28;20221;-62
2023/07/28 01:27:49;;;;;;;3.43;2.40;;;;;;;21.80;67.43;99538.56;5070291;28;20413;-62
2023/07/28 01:30:15;;;;;;;6.20;3.10;;;;;;;21.81;67.16;99533.63;5060355;28;20909;-62
2023/07/28 01:32:40;;;;;;;3.80;2.50;;;;;;;21.81;67.25;99540.22;5029861;28;20441;-62
2023/07/28 01:35:06;;;;;;;6.10;3.03;;;;;;;21.80;67.40;99529.13;5034195;28;20234;-62
2023/07/28 01:37:32;;;;;;;4.00;2.50;;;;;;;21.79;67.30;99531.19;5051973;28;20700;-62
2023/07/28 01:39:57;;;;;;;4.27;2.47;;;;;;;21.79;67.32;99528.31;5055402;28;20449;-62
2023/07/28 01:42:23;;;;;;;3.80;2.53;;;;;;;21.80;67.80;99532.84;5048236;28;20175;-62
2023/07/28 01:44:49;;;;;;;4.50;2.80;;;;;;;21.81;67.49;99534.47;5050845;28;20183;-62
2023/07/28 01:47:15;;;;;;;5.17;2.47;;;;;;;21.80;67.43;99521.34;5067835;28;20167;-62
2023/07/28 01:49:40;;;;;;;5.80;2.40;;;;;;;21.80;67.27;99529.97;5068593;28;20421;-62
2023/07/28 01:52:06;;;;;;;4.70;2.93;;;;;;;21.81;67.52;99531.59;5055153;28;20191;-62
2023/07/28 01:54:31;;;;;;;4.50;2.67;;;;;;;21.80;67.63;99529.13;5053645;28;20175;-62
2023/07/28 01:56:57;;;;;;;5.30;2.93;;;;;;;21.80;67.17;99538.56;5064215;28;20207;-62
2023/07/28 01:59:22;;;;;;;3.80;2.37;;;;;;;21.79;67.88;99542.69;5048864;28;20184;-62
2023/07/28 02:01:48;;;;;;;3.50;2.20;;;;;;;21.80;67.37;99555.81;5038594;28;20179;-62
2023/07/28 02:04:13;;;;;;;4.70;2.33;;;;;;;21.80;67.90;99549.25;5068351;28;20194;-62
2023/07/28 02:06:39;;;;;;;4.23;2.40;;;;;;;21.79;67.19;99547.63;5065179;28;20187;-62
2023/07/28 02:09:04;;;;;;;4.90;2.57;;;;;;;21.79;67.82;99557.06;5068779;28;20643;-62
2023/07/28 02:11:30;;;;;;;5.10;2.53;;;;;;;21.79;67.99;99544.75;5068886;28;20544;-62
2023/07/28 02:13:55;;;;;;;4.53;2.70;;;;;;;21.79;67.68;99545.56;5069390;28;20564;-62
2023/07/28 02:16:21;;;;;;;3.90;2.67;;;;;;;21.80;67.56;99541.44;5060641;28;20661;-62
2023/07/28 02:18:46;;;;;;;4.93;3.03;;;;;;;21.79;67.91;99539.81;5051260;28;20753;-62
2023/07/28 02:21:12;;;;;;;7.13;2.90;;;;;;;21.79;68.26;99539.81;5062516;28;20538;-62
2023/07/28 02:23:37;;;;;;;4.17;3.00;;;;;;;21.77;68.24;99545.16;5022417;28;20222;-62
2023/07/28 02:26:03;;;;;;;6.63;2.80;;;;;;;21.79;67.95;99557.06;5050936;28;20176;-62
2023/07/28 02:28:28;;;;;;;4.53;2.47;;;;;;;21.79;67.72;99551.31;5051530;28;20669;-62
2023/07/28 02:30:54;;;;;;;5.80;2.40;;;;;;;21.79;67.88;99551.31;5048745;28;20179;-62
2023/07/28 02:33:19;;;;;;;5.53;2.80;;;;;;;21.78;67.91;99564.03;5067860;28;20183;-62
2023/07/28 02:35:44;;;;;;;3.43;2.13;;;;;;;21.79;67.97;99568.56;5065663;28;20237;-62
2023/07/28 02:38:10;;;;;;;4.70;2.60;;;;;;;21.81;68.29;99576.72;5067986;28;20211;-62
2023/07/28 02:40:35;;;;;;;4.40;2.57;;;;;;;21.79;67.84;99577.19;5050011;28;20182;-62
2023/07/28 02:43:01;;;;;;;3.73;2.50;;;;;;;21.79;68.11;99574.31;5054431;28;20199;-62
2023/07/28 02:45:26;;;;;;;4.27;2.80;;;;;;;21.79;68.12;99584.97;5061012;28;20646;-62
2023/07/28 02:47:52;;;;;;;4.60;2.40;;;;;;;21.79;68.25;99579.22;5068865;28;20638;-62
2023/07/28 02:50:17;;;;;;;4.37;2.73;;;;;;;21.79;68.00;99584.97;5066790;28;20614;-62
2023/07/28 02:52:43;;;;;;;5.37;3.07;;;;;;;21.77;68.51;99579.63;5050330;28;20718;-62
2023/07/28 02:55:08;;;;;;;4.27;2.60;;;;;;;21.77;68.19;99579.63;5056558;28;20205;-62
2023/07/28 02:57:34;;;;;;;3.57;2.60;;;;;;;21.77;67.98;99588.25;5057705;28;20277;-62
2023/07/28 02:59:59;;;;;;;4.43;2.40;;;;;;;21.78;68.61;99601.38;5055614;28;20870;-62
2023/07/28 03:02:24;;;;;;;4.90;2.93;;;;;;;21.77;68.41;99596.88;5047526;28;20600;-62
2023/07/28 03:04:50;;;;;;;4.93;2.70;;;;;;;21.78;68.17;99589.88;5043620;28;20979;-62
2023/07/28 03:07:15;;;;;;;3.90;2.57;;;;;;;21.77;68.46;99598.94;5048771;28;20673;-62
2023/07/28 03:09:41;;;;;;;4.00;2.37;;;;;;;21.79;68.32;99610.84;5067343;28;20677;-62
2023/07/28 03:12:07;;;;;;;4.60;2.33;;;;;;;21.78;68.01;99612.88;5050626;28;20179;-62
2023/07/28 03:14:32;;;;;;;3.50;2.27;;;;;;;21.77;68.33;99617.00;5059435;28;20546;-62
2023/07/28 03:16:58;;;;;;;3.77;2.57;;;;;;;21.79;68.44;99611.66;5061266;28;20453;-62
2023/07/28 03:19:23;;;;;;;7.80;2.80;;;;;;;21.77;68.57;99617.00;5066519;28;20167;-62
2023/07/28 03:21:49;;;;;;;4.03;2.50;;;;;;;21.79;68.12;99614.53;5049883;28;20191;-62
2023/07/28 03:24:14;;;;;;;3.43;2.50;;;;;;;21.78;67.91;99615.75;5048249;28;20227;-62
2023/07/28 03:26:40;;;;;;;3.30;2.20;;;;;;;21.79;68.15;99619.44;5034537;28;20191;-62
2023/07/28 03:29:05;;;;;;;4.13;3.00;;;;;;;21.78;68.71;99618.63;5060204;28;20194;-62
2023/07/28 03:31:30;;;;;;;3.77;2.10;;;;;;;21.78;67.90;99612.88;5067492;28;20183;-62
2023/07/28 03:33:56;;;;;;;4.50;2.80;;;;;;;21.79;67.78;99617.41;5062798;28;20187;-62
2023/07/28 03:36:21;;;;;;;5.67;2.57;;;;;;;21.79;68.25;99613.69;5047341;28;20179;-62
2023/07/28 03:38:47;;;;;;;3.83;2.07;;;;;;;21.80;67.57;99619.03;5065100;28;20195;-62
2023/07/28 03:41:12;;;;;;;3.50;2.50;;;;;;;21.79;67.62;99614.53;5067700;28;20167;-62
2023/07/28 03:43:38;;;;;;;3.43;2.47;;;;;;;21.78;67.75;99607.13;5059691;28;20196;-62
2023/07/28 03:46:03;;;;;;;4.10;2.60;;;;;;;21.79;68.15;99620.28;5048163;28;20163;-62
2023/07/28 03:48:29;;;;;;;4.17;2.53;;;;;;;21.78;68.18;99612.88;5045327;22;20897;-62
2023/07/28 03:50:54;;;;;;;3.33;2.40;;;;;;;21.79;67.64;99614.53;5039298;28;20999;-62
2023/07/28 03:53:20;;;;;;;4.03;2.70;;;;;;;21.78;67.60;99615.75;5049729;28;20180;-62
2023/07/28 03:55:45;;;;;;;3.87;2.50;;;;;;;21.79;67.40;99614.53;5050872;28;20168;-62
2023/07/28 03:58:11;;;;;;;3.83;2.40;;;;;;;21.78;67.94;99612.88;5047390;28;20199;-62
2023/07/28 04:00:36;;;;;;;3.50;2.20;;;;;;;21.78;67.32;99610.00;5049799;28;20176;-62
2023/07/28 04:03:01;;;;;;;4.47;3.10;;;;;;;21.79;67.50;99616.56;5047423;28;20192;-62
2023/07/28 04:05:27;;;;;;;3.60;2.30;;;;;;;21.79;68.02;99616.56;5032309;28;20172;-62
2023/07/28 04:07:52;;;;;;;3.50;2.53;;;;;;;21.80;67.12;99621.09;5032403;28;20183;-62
2023/07/28 04:10:18;;;;;;;4.40;2.70;;;;;;;21.79;67.47;99626.03;5040493;28;20266;-62
2023/07/28 04:12:43;;;;;;;3.60;2.60;;;;;;;21.79;67.32;99619.44;5032100;28;20175;-62
2023/07/28 04:15:09;;;;;;;4.37;2.90;;;;;;;21.78;67.54;99618.63;5044731;28;20171;-62
2023/07/28 04:17:35;;;;;;;3.53;2.60;;;;;;;21.78;67.33;99618.63;5047951;28;20188;-62
2023/07/28 04:20:00;;;;;;;4.10;2.77;;;;;;;21.79;67.60;99613.69;5049801;28;20195;-62
2023/07/28 04:22:27;;;;;;;4.80;3.07;;;;;;;21.79;67.41;99623.16;5049202;28;20716;-62
2023/07/28 04:24:54;;;;;;;3.40;2.10;;;;;;;21.80;67.63;99623.97;5043697;28;20615;-62
2023/07/28 04:27:19;;;;;;;4.57;2.20;;;;;;;21.79;67.12;99620.28;5033411;28;20421;-62
2023/07/28 04:29:45;;;;;;;3.43;2.50;;;;;;;21.78;67.52;99624.38;5036955;28;20439;-62
2023/07/28 04:32:10;;;;;;;3.60;2.37;;;;;;;21.77;67.57;99617.00;5054106;28;20307;-62
2023/07/28 04:34:36;;;;;;;3.50;2.40;;;;;;;21.79;67.48;99613.69;5049819;28;20172;-62
2023/07/28 04:37:01;;;;;;;3.93;2.70;;;;;;;21.79;67.68;99613.69;5050040;28;20187;-62
2023/07/28 04:39:27;;;;;;;3.30;2.00;;;;;;;21.79;67.09;99619.44;5035681;28;20234;-62
2023/07/28 04:41:52;;;;;;;2.97;2.10;;;;;;;21.78;67.13;99638.72;5029267;28;20173;-62
2023/07/28 04:44:19;;;;;;;3.20;1.80;;;;;;;21.78;67.55;99655.97;5034974;28;20195;-62
2023/07/28 04:46:47;;;;;;;3.93;2.50;;;;;;;21.77;67.03;99642.84;5048862;28;20160;-62
2023/07/28 04:49:13;;;;;;;4.30;2.40;;;;;;;21.77;67.57;99650.66;5048934;28;20968;-62
2023/07/28 04:51:38;;;;;;;3.70;2.07;;;;;;;21.77;67.54;99650.66;5039221;28;20442;-62
2023/07/28 04:54:03;;;;;;;4.23;2.73;;;;;;;21.76;67.69;99654.75;5030140;28;20931;-62
2023/07/28 04:56:29;;;;;;;4.83;2.23;;;;;;;21.76;67.38;99646.97;5036980;28;20179;-62
2023/07/28 04:58:54;;;;;;;4.50;2.43;;;;;;;21.77;67.32;99647.81;5049816;28;20176;-62
2023/07/28 05:01:20;;;;;;;4.23;2.53;;;;;;;21.77;67.67;99653.53;5041111;28;20184;-62
2023/07/28 05:03:45;;;;;;;5.20;3.30;;;;;;;21.77;67.91;99654.34;5050291;28;20634;-62
2023/07/28 05:06:11;;;;;;;3.90;2.60;;;;;;;21.77;67.89;99662.97;5048496;28;20168;-62
2023/07/28 05:08:36;;;;;;;3.90;2.50;;;;;;;21.76;67.98;99672.00;5052583;28;20195;-62
2023/07/28 05:11:02;;;;;;;3.40;2.40;;;;;;;21.77;68.33;99659.28;5048910;28;20262;-62
2023/07/28 05:13:27;;;;;;;3.50;2.33;;;;;;;21.77;67.80;99667.91;5041637;28;20242;-62
2023/07/28 05:15:52;;;;;;;4.30;2.60;;;;;;;21.76;67.73;99672.84;5030777;28;20180;-62
2023/07/28 05:18:18;;;;;;;4.77;3.00;;;;;;;21.77;67.98;99668.72;5032311;28;20200;-62
2023/07/28 05:20:43;;;;;;;4.30;2.60;;;;;;;21.76;68.31;99684.31;5051799;28;20191;-62
2023/07/28 05:23:09;;;;;;;4.60;2.33;;;;;;;21.75;68.34;99679.81;5036915;28;20267;-62
2023/07/28 05:25:34;;;;;;;4.03;2.60;;;;;;;21.75;67.99;99676.94;5029539;28;20168;-62
2023/07/28 05:28:00;;;;;;;4.23;2.70;;;;;;;21.75;68.36;99676.94;5033482;28;20180;-62
2023/07/28 05:30:25;;;;;;;3.67;2.40;;;;;;;21.77;68.15;99685.16;5049602;28;20767;-62
2023/07/28 05:32:51;;;;;;;4.63;3.10;;;;;;;21.76;68.74;99683.50;5049196;28;20681;-62
2023/07/28 05:35:16;;;;;;;4.30;2.73;;;;;;;21.76;68.52;99677.75;5049057;28;20710;-62
2023/07/28 05:37:41;;;;;;;3.87;2.43;;;;;;;21.76;68.59;99677.75;5068473;28;20227;-62
2023/07/28 05:40:08;;;;;;;4.40;3.00;;;;;;;21.75;68.37;99674.06;5055765;28;20192;-62
2023/07/28 05:42:33;;;;;;;3.80;2.30;;;;;;;21.76;68.56;99672.00;5028171;28;20157;-62
2023/07/28 05:44:59;;;;;;;3.40;2.30;;;;;;;21.76;68.59;99667.09;5029333;28;20847;-62
2023/07/28 05:47:24;;;;;;;4.17;2.60;;;;;;;21.77;68.39;99673.66;5047598;28;20184;-62
2023/07/28 05:49:53;;;;;;;3.90;2.63;;;;;;;21.76;68.73;99672.84;5049149;28;20160;-62
2023/07/28 05:52:19;;;;;;;5.47;2.57;;;;;;;21.77;68.95;99680.22;5042053;28;20665;-62
2023/07/28 05:54:44;;;;;;;4.50;2.30;;;;;;;21.76;68.86;99690.06;5061515;28;20414;-62
2023/07/28 05:57:10;;;;;;;3.87;2.50;;;;;;;21.77;68.44;99700.31;5049240;28;20203;-62
2023/07/28 05:59:35;;;;;;;3.43;2.20;;;;;;;21.77;68.54;99708.94;5032878;28;20191;-62
2023/07/28 06:02:01;;;;;;;3.60;2.67;;;;;;;21.77;68.43;99696.66;5039894;28;20191;-62
2023/07/28 06:04:26;;;;;;;3.60;2.60;;;;;;;21.77;68.80;99691.69;5041226;28;20541;-62
2023/07/28 06:06:51;;;;;;;4.00;2.50;;;;;;;21.77;68.85;99697.44;5030004;28;20175;-62
2023/07/28 06:09:17;;;;;;;3.23;2.60;;;;;;;21.76;69.06;99684.31;5029790;28;20172;-62
2023/07/28 06:11:42;;;;;;;3.10;2.50;;;;;;;21.77;68.93;99682.28;5031200;28;20172;-62
2023/07/28 06:14:08;;;;;;;4.23;2.70;;;;;;;21.76;68.40;99690.06;5038280;28;20179;-62
2023/07/28 06:16:33;;;;;;;4.00;2.43;;;;;;;21.76;68.64;99692.94;5042421;28;20274;-62
2023/07/28 06:18:59;;;;;;;4.00;2.37;;;;;;;21.77;68.23;99691.69;5046066;28;20177;-62
2023/07/28 06:21:24;;;;;;;4.50;2.83;;;;;;;21.76;68.87;99692.13;5045602;28;20265;-62
2023/07/28 06:23:50;;;;;;;3.30;2.20;;;;;;;21.76;68.62;99690.06;5029426;28;20190;-62
2023/07/28 06:26:15;;;;;;;6.40;2.63;;;;;;;21.76;68.83;99689.25;5047671;28;20175;-62
2023/07/28 06:28:41;;;;;;;3.70;2.60;;;;;;;21.76;68.35;99692.94;5044792;28;20175;-62
2023/07/28 06:31:06;;;;;;;4.40;3.00;;;;;;;21.77;68.31;99700.31;5042456;28;20188;-64
2023/07/28 06:33:32;;;;;;;3.57;2.63;;;;;;;21.76;68.57;99704.44;5042514;28;20249;-64
2023/07/28 06:35:57;;;;;;;4.00;2.50;;;;;;;21.77;68.37;99708.94;5032173;28;20184;-64
2023/07/28 06:38:22;;;;;;;4.20;2.80;;;;;;;21.77;68.33;99703.19;5033598;28;20276;-64
2023/07/28 06:40:48;;;;;;;4.50;2.37;;;;;;;21.76;68.21;99707.31;5045563;28;20240;-64
2023/07/28 06:43:13;;;;;;;3.60;2.40;;;;;;;21.76;68.34;99707.31;5047888;28;20164;-64
2023/07/28 06:45:39;;;;;;;4.00;2.93;;;;;;;21.77;68.42;99708.16;5043597;28;20181;-64
2023/07/28 06:48:04;;;;;;;3.90;2.43;;;;;;;21.77;68.68;99726.19;5029113;28;20212;-64
2023/07/28 06:50:30;;;;;;;4.13;2.77;;;;;;;21.76;68.45;99718.81;5041766;28;20664;-64
2023/07/28 06:52:55;;;;;;;4.50;3.10;;;;;;;21.76;68.70;99723.72;5049201;28;20178;-64
2023/07/28 06:55:21;;;;;;;4.50;2.80;;;;;;;21.77;68.60;99722.50;5041365;28;20188;-64
2023/07/28 06:57:47;;;;;;;5.50;2.67;;;;;;;21.76;68.62;99730.31;5029384;28;20185;-64
2023/07/28 07:00:14;;;;;;;3.40;2.30;;;;;;;21.77;68.62;99729.06;5030624;28;20177;-64
2023/07/28 07:02:40;;;;;;;3.90;3.07;;;;;;;21.76;68.65;99735.22;5047458;28;20411;-64
2023/07/28 07:05:06;;;;;;;3.57;2.27;;;;;;;21.77;68.30;99743.44;5053626;28;20415;-64
2023/07/28 07:07:32;;;;;;;4.00;2.53;;;;;;;21.76;69.00;99736.06;5063716;28;20183;-64
2023/07/28 07:09:57;;;;;;;3.53;2.63;;;;;;;21.76;68.43;99729.47;5051966;28;20485;-64
2023/07/28 07:12:23;;;;;;;3.70;2.10;;;;;;;21.77;68.62;99736.88;5032502;28;20187;-64
2023/07/28 07:14:48;;;;;;;4.50;2.50;;;;;;;21.76;69.38;99735.22;5047921;28;20694;-63
2023/07/28 07:17:14;;;;;;;3.40;2.13;;;;;;;21.77;68.92;99739.75;5049493;28;20186;-64
2023/07/28 07:19:39;;;;;;;5.77;2.60;;;;;;;21.76;69.15;99756.16;5030011;28;20250;-64
2023/07/28 07:22:05;;;;;;;3.60;2.43;;;;;;;21.78;69.21;99747.94;5032947;28;20233;-64
2023/07/28 07:24:31;;;;;;;4.23;2.60;;;;;;;21.76;69.23;99750.41;5044024;28;20183;-64
2023/07/28 07:26:56;;;;;;;3.10;2.33;;;;;;;21.76;69.09;99747.53;5048439;28;20418;-64
2023/07/28 07:29:22;;;;;;;3.70;2.50;;;;;;;21.78;69.46;99739.31;5045417;28;20202;-63
2023/07/28 07:31:47;;;;;;;3.33;2.57;;;;;;;21.76;68.88;99750.41;5045656;28;20661;-64
2023/07/28 07:34:13;;;;;;;4.30;2.70;;;;;;;21.77;68.62;99742.63;5046885;28;20645;-63
2023/07/28 07:36:39;;;;;;;4.33;2.40;;;;;;;21.78;68.88;99750.81;5036133;28;20669;-64
2023/07/28 07:39:05;;;;;;;3.37;2.30;;;;;;;21.76;68.99;99747.53;5026573;28;20184;-64
2023/07/28 07:41:30;;;;;;;4.47;2.73;;;;;;;21.77;68.79;99736.88;5028553;28;20192;-64
2023/07/28 07:43:56;;;;;;;3.17;2.20;;;;;;;21.77;69.49;99746.31;5065660;28;21021;-64
2023/07/28 07:46:22;;;;;;;2.70;2.00;;;;;;;21.78;68.76;99753.69;5066635;28;20183;-64
2023/07/28 07:48:47;;;;;;;4.20;2.93;;;;;;;21.79;68.71;99754.50;5042205;28;20304;-64
2023/07/28 07:51:13;;;;;;;3.10;2.30;;;;;;;21.78;69.32;99750.81;5034337;28;20662;-63
2023/07/28 07:53:38;;;;;;;4.20;2.60;;;;;;;21.77;68.98;99754.91;5061912;28;20179;-63
2023/07/28 07:56:04;;;;;;;6.13;3.07;;;;;;;21.77;69.08;99757.00;5037402;28;20207;-64
2023/07/28 07:58:30;;;;;;;4.40;2.43;;;;;;;21.77;68.78;99760.66;5027361;28;20192;-64
2023/07/28 08:00:56;;;;;;;3.60;2.50;;;;;;;21.77;68.79;99763.53;5030368;28;20195;-64
2023/07/28 08:03:21;;;;;;;3.50;2.27;;;;;;;21.79;68.15;99775.47;5045135;28;20168;-64
2023/07/28 08:05:47;;;;;;;4.23;2.43;;;;;;;21.78;68.20;99768.03;5047221;28;20172;-64
2023/07/28 08:08:15;;;;;;;3.40;2.17;;;;;;;21.78;68.54;99773.78;5031123;28;20274;-64
2023/07/28 08:10:40;;;;;;;4.00;2.47;;;;;;;21.79;68.28;99778.34;5043678;28;21304;-63
2023/07/28 08:13:06;;;;;;;4.47;2.47;;;;;;;21.77;68.08;99772.16;5045786;28;20431;-64
2023/07/28 08:15:31;;;;;;;7.30;2.50;;;;;;;21.77;67.86;99772.16;5029073;28;20203;-63
2023/07/28 08:17:56;;;;;;;3.53;2.00;;;;;;;21.79;68.31;99775.47;5046199;28;20187;-64
2023/07/28 08:20:22;;;;;;;3.60;2.20;;;;;;;21.78;68.36;99782.41;5036885;28;20184;-64
2023/07/28 08:22:47;;;;;;;3.57;2.40;;;;;;;21.78;67.80;99785.28;5036748;28;20184;-64
2023/07/28 08:25:13;;;;;;;3.70;2.53;;;;;;;21.77;67.82;99775.03;5048876;28;20186;-64
2023/07/28 08:27:38;;;;;;;3.43;2.47;;;;;;;21.77;68.11;99774.25;5045940;28;20187;-63
2023/07/28 08:30:05;;;;;;;4.87;2.60;;;;;;;21.76;68.46;99779.16;5027773;28;20164;-64
2023/07/28 08:32:32;;;;;;;3.13;2.13;;;;;;;21.77;67.75;99777.09;5023615;28;20644;-63
2023/07/28 08:34:57;;;;;;;3.13;2.37;;;;;;;21.79;67.90;99775.47;5043908;28;20446;-64
2023/07/28 08:37:23;;;;;;;4.50;2.70;;;;;;;21.76;68.21;99782.03;5046994;28;20944;-64
2023/07/28 08:39:48;;;;;;;4.20;2.63;;;;;;;21.78;67.65;99791.03;5044383;28;20192;-64
2023/07/28 08:42:15;;;;;;;3.10;2.30;;;;;;;21.76;68.15;99784.91;5047241;28;20184;-64
2023/07/28 08:44:41;;;;;;;3.50;2.13;;;;;;;21.76;67.80;99790.66;5049871;28;20183;-64
2023/07/28 08:47:06;;;;;;;3.87;2.70;;;;;;;21.77;68.00;99789.41;5036758;28;20446;-64
2023/07/28 08:49:36;;;;;;;3.33;2.33;;;;;;;21.76;68.10;99790.66;5032028;28;20529;-64
2023/07/28 08:52:03;;;;;;;4.17;2.43;;;;;;;21.76;67.68;99805.00;5034469;28;20258;-63
2023/07/28 08:54:28;;;;;;;3.80;2.00;;;;;;;21.77;68.12;99795.16;5033127;28;20419;-64
2023/07/28 08:56:54;;;;;;;3.47;2.30;;;;;;;21.78;68.27;99802.53;5051145;28;20465;-63
2023/07/28 08:59:26;;;;;;;4.40;2.60;;;;;;;21.77;68.47;99802.97;5034586;28;20218;-63
2023/07/28 09:01:57;;;;;;;3.37;2.17;;;;;;;21.77;68.53;99795.16;5042273;28;20191;-64
2023/07/28 09:04:23;;;;;;;3.47;2.10;;;;;;;21.76;68.02;99793.53;5051241;28;20450;-63
2023/07/28 09:06:49;;;;;;;3.73;2.60;;;;;;;21.75;68.18;99791.88;5040242;28;20477;-64
2023/07/28 09:09:15;;;;;;;4.10;2.60;;;;;;;21.76;68.40;99795.56;5050383;28;20182;-64
2023/07/28 09:11:48;;;;;;;3.97;2.50;;;;;;;21.75;68.09;99797.63;5051726;28;20172;-64
2023/07/28 09:14:16;;;;;;;3.60;2.20;;;;;;;21.76;68.05;99793.53;5059112;28;20178;-63
2023/07/28 09:16:41;;;;;;;4.03;2.37;;;;;;;21.77;68.03;99779.97;5036213;28;20541;-63
2023/07/28 09:19:07;;;;;;;3.60;2.37;;;;;;;21.79;68.10;99789.00;5031487;28;20415;-64
2023/07/28 09:21:33;;;;;;;3.23;2.47;;;;;;;21.77;67.66;99783.66;5038603;28;20192;-64
2023/07/28 09:24:10;;;;;;;3.47;2.20;;;;;;;21.77;67.63;99779.97;5031628;28;21026;-64
2023/07/28 09:26:46;;;;;;;3.47;2.27;;;;;;;21.77;68.03;99783.66;5033631;28;20321;-64
2023/07/28 09:29:18;;;;;;;4.00;2.90;;;;;;;21.77;67.99;99783.66;5032469;28;20422;-64
2023/07/28 09:31:44;;;;;;;3.77;2.70;;;;;;;21.78;67.59;99785.28;5037933;28;20473;-64
2023/07/28 09:34:10;;;;;;;5.07;2.70;;;;;;;21.76;68.41;99784.91;5034657;28;20451;-64
2023/07/28 09:36:36;;;;;;;4.60;2.60;;;;;;;21.78;67.70;99793.91;5029674;28;20423;-64
2023/07/28 09:39:03;;;;;;;3.67;2.60;;;;;;;21.75;67.80;99791.88;5035229;28;20591;-64
2023/07/28 09:41:31;;;;;;;4.60;2.50;;;;;;;21.77;68.40;99798.03;5052817;28;20428;-64
2023/07/28 09:43:57;;;;;;;4.40;2.77;;;;;;;21.77;67.91;99789.41;5043880;28;20779;-64
2023/07/28 09:46:23;;;;;;;3.70;2.37;;;;;;;21.77;68.49;99794.34;5040901;28;20952;-64
2023/07/28 09:48:48;;;;;;;3.10;2.00;;;;;;;21.76;68.38;99799.25;5046962;28;20478;-64
2023/07/28 09:51:19;;;;;;;5.03;2.70;;;;;;;21.78;68.48;99799.66;5045469;28;20521;-64
2023/07/28 09:53:46;;;;;;;3.70;2.40;;;;;;;21.76;67.86;99792.69;5032252;28;20210;-64
2023/07/28 09:56:15;;;;;;;3.77;2.40;;;;;;;21.77;68.03;99786.53;5048052;28;20434;-64
2023/07/28 09:58:41;;;;;;;3.13;1.90;;;;;;;21.77;67.84;99775.03;5042787;28;20901;-64
2023/07/28 10:01:07;;;;;;;4.67;2.63;;;;;;;21.77;68.32;99780.78;5032639;28;20925;-64
2023/07/28 10:03:33;;;;;;;4.63;2.80;;;;;;;21.78;68.69;99782.41;5049385;28;20422;-64
2023/07/28 10:05:58;;;;;;;3.57;2.77;;;;;;;21.79;69.29;99786.94;5047034;28;20488;-64
2023/07/28 10:08:24;;;;;;;4.53;2.73;;;;;;;21.79;69.28;99789.81;5033782;28;20185;-64
2023/07/28 10:10:52;;;;;;;3.80;2.40;;;;;;;21.80;70.25;99790.63;5049129;28;20194;-64
2023/07/28 10:13:21;;;;;;;3.80;2.23;;;;;;;21.79;69.86;99786.94;5034192;28;20196;-64
2023/07/28 10:15:47;;;;;;;3.87;2.47;;;;;;;21.79;69.77;99789.81;5050988;28;20509;-64
2023/07/28 10:18:13;;;;;;;4.90;2.43;;;;;;;21.80;69.57;99794.34;5046035;28;20458;-64
2023/07/28 10:20:42;;;;;;;6.10;2.67;;;;;;;21.90;69.58;99798.41;5037636;28;20846;-64
2023/07/28 10:23:20;;;;;;;4.97;2.77;;;;;;;21.96;69.87;99797.56;5045320;28;20193;-64
2023/07/28 10:25:46;;;;;;;4.70;2.60;;;;;;;21.95;70.16;99795.09;5050847;28;20753;-64
2023/07/28 10:28:41;;;;;;;4.57;2.30;;;;;;;21.93;70.56;99800.44;5039929;28;20463;-64
2023/07/28 10:31:07;;;;;;;6.00;2.50;;;;;;;21.90;70.83;99798.41;5034445;28;20269;-64
2023/07/28 10:33:34;;;;;;;4.23;2.50;;;;;;;21.89;72.02;99803.34;5044727;28;20427;-64
2023/07/28 10:36:10;;;;;;;4.53;2.60;;;;;;;21.88;72.56;99813.19;5037448;28;20774;-64
2023/07/28 10:38:37;;;;;;;5.00;2.97;;;;;;;21.87;72.45;99808.66;5029345;28;20479;-64
2023/07/28 10:41:10;;;;;;;4.67;2.63;;;;;;;21.86;72.08;99807.03;5045923;28;20430;-64
2023/07/28 10:43:35;;;;;;;4.57;3.13;;;;;;;21.85;71.96;99807.44;5029933;28;20407;-64
2023/07/28 10:46:01;;;;;;;6.03;3.10;;;;;;;21.85;71.52;99830.44;5028718;28;21380;-64
2023/07/28 10:48:27;;;;;;;8.13;2.90;;;;;;;21.85;71.36;99825.53;5044174;28;20225;-64
2023/07/28 10:50:53;;;;;;;6.80;2.37;;;;;;;21.85;71.02;99827.56;5044166;28;20241;-64
2023/07/28 10:53:19;;;;;;;3.90;2.57;;;;;;;21.85;71.24;99830.44;5047798;28;20434;-64
2023/07/28 10:55:44;;;;;;;3.70;2.47;;;;;;;21.84;70.64;99832.50;5045359;28;20434;-64
2023/07/28 10:58:10;;;;;;;5.47;2.97;;;;;;;21.85;70.54;99825.53;5047562;28;20203;-64
2023/07/28 11:00:35;;;;;;;4.73;2.50;;;;;;;21.85;70.05;99819.78;5045688;28;20191;-64
2023/07/28 11:03:01;;;;;;;3.70;2.57;;;;;;;21.83;70.66;99822.22;5049181;28;20213;-64
2023/07/28 11:05:27;;;;;;;3.93;2.57;;;;;;;21.83;70.21;99816.47;5047648;28;20191;-64
2023/07/28 11:08:00;;;;;;;3.10;2.17;;;;;;;21.83;70.88;99810.72;5045822;28;20186;-64
2023/07/28 11:10:28;;;;;;;3.03;2.33;;;;;;;21.84;70.23;99823.06;5067008;28;20425;-64
2023/07/28 11:12:54;;;;;;;4.30;2.77;;;;;;;21.83;71.07;99819.34;5044507;28;20469;-64
2023/07/28 11:15:19;;;;;;;6.63;3.00;;;;;;;21.83;70.50;99816.47;5050490;28;20895;-64
2023/07/28 11:17:50;;;;;;;4.20;2.80;;;;;;;21.83;70.85;99822.22;5059684;28;20852;-64
2023/07/28 11:20:16;;;;;;;3.33;2.60;;;;;;;21.84;71.45;99811.56;5026852;28;20692;-64
2023/07/28 11:22:44;;;;;;;4.17;2.93;;;;;;;21.85;71.11;99813.19;5040498;28;20434;-64
2023/07/28 11:25:09;;;;;;;7.03;3.03;;;;;;;21.85;70.81;99816.91;5049278;28;20856;-64
2023/07/28 11:27:36;;;;;;;4.87;2.93;;;;;;;21.84;71.71;99821.00;5049274;28;20414;-64
2023/07/28 11:30:03;;;;;;;5.10;2.80;;;;;;;21.85;71.75;99813.19;5030457;28;20184;-64